createdAt,value
2018-07-06T00:01:05.547Z,12.90
2018-07-06T00:03:47.791Z,12.23
2018-07-06T00:06:30.041Z,14.37
2018-07-06T00:09:12.224Z,14.13
2018-07-06T00:11:54.408Z,12.77
2018-07-06T00:14:36.771Z,11.30
2018-07-06T00:17:19.125Z,11.13
2018-07-06T00:20:01.422Z,9.40
2018-07-06T00:22:44.408Z,11.20
2018-07-06T00:25:26.754Z,8.80
2018-07-06T00:28:02.764Z,7.53
2018-07-06T00:30:44.741Z,9.13
2018-07-06T00:33:26.788Z,8.70
2018-07-06T00:36:08.570Z,14.43
2018-07-06T00:38:50.620Z,10.40
2018-07-06T00:41:32.618Z,11.43
2018-07-06T00:44:14.611Z,15.57
2018-07-06T00:46:56.590Z,10.80
2018-07-06T00:49:38.490Z,10.13
2018-07-06T00:52:20.463Z,11.80
2018-07-06T00:55:02.427Z,11.67
2018-07-06T00:57:48.604Z,12.37
2018-07-06T01:00:30.693Z,11.93
2018-07-06T01:03:13.135Z,12.37
2018-07-06T01:05:54.953Z,12.07
2018-07-06T01:08:36.809Z,14.17
2018-07-06T01:11:18.709Z,11.80
2018-07-06T01:14:00.699Z,12.17
2018-07-06T01:16:42.698Z,12.33
2018-07-06T01:19:24.562Z,13.07
2018-07-06T01:22:06.366Z,12.27
2018-07-06T01:24:48.289Z,12.50
2018-07-06T01:27:30.087Z,12.53
2018-07-06T01:30:12.721Z,13.43
2018-07-06T01:32:54.510Z,12.67
2018-07-06T01:35:36.414Z,13.27
2018-07-06T01:38:18.265Z,13.83
2018-07-06T01:41:00.075Z,14.23
2018-07-06T01:43:41.913Z,14.40
2018-07-06T01:46:23.943Z,15.00
2018-07-06T01:49:05.683Z,14.40
2018-07-06T01:51:47.462Z,17.03
2018-07-06T01:54:29.287Z,18.53
2018-07-06T01:57:11.126Z,19.10
2018-07-06T01:59:53.079Z,21.67
2018-07-06T02:02:35.151Z,18.43
2018-07-06T02:05:17.041Z,19.30
2018-07-06T02:07:58.963Z,17.53
2018-07-06T02:10:40.784Z,17.97
2018-07-06T02:13:22.585Z,16.90
2018-07-06T02:16:04.658Z,18.33
2018-07-06T02:18:46.649Z,19.40
2018-07-06T02:21:28.437Z,22.70
2018-07-06T02:24:10.371Z,19.80
2018-07-06T02:26:52.085Z,21.33
2018-07-06T02:29:33.955Z,21.53
2018-07-06T02:32:15.875Z,21.90
2018-07-06T02:34:57.808Z,21.57
2018-07-06T02:37:39.886Z,25.73
2018-07-06T02:40:21.594Z,23.60
2018-07-06T02:43:03.526Z,22.90
2018-07-06T02:45:45.382Z,25.80
2018-07-06T02:48:27.364Z,27.57
2018-07-06T02:51:09.198Z,25.57
2018-07-06T02:53:51.186Z,26.87
2018-07-06T02:56:33.742Z,26.70
2018-07-06T02:59:15.551Z,29.70
2018-07-06T03:01:57.543Z,33.30
2018-07-06T03:04:39.334Z,32.97
2018-07-06T03:07:21.400Z,33.30
2018-07-06T03:10:03.321Z,31.00
2018-07-06T03:12:45.134Z,35.77
2018-07-06T03:15:26.997Z,32.97
2018-07-06T03:18:08.758Z,37.23
2018-07-06T03:20:50.798Z,36.30
2018-07-06T03:23:32.637Z,31.83
2018-07-06T03:26:14.606Z,36.63
2018-07-06T03:28:56.654Z,36.33
2018-07-06T03:31:38.572Z,30.00
2018-07-06T03:34:20.674Z,31.10
2018-07-06T03:37:02.593Z,33.60
2018-07-06T03:39:44.901Z,30.13
2018-07-06T03:42:26.871Z,30.80
2018-07-06T03:45:08.863Z,31.53
2018-07-06T03:47:50.777Z,30.07
2018-07-06T03:50:32.689Z,36.37
2018-07-06T03:53:14.633Z,34.83
2018-07-06T03:55:58.269Z,34.27
2018-07-06T03:58:40.103Z,28.17
2018-07-06T04:01:21.990Z,30.57
2018-07-06T04:04:03.959Z,43.40
2018-07-06T04:06:45.809Z,27.80
2018-07-06T04:09:27.891Z,30.13
2018-07-06T04:12:09.814Z,28.93
2018-07-06T04:14:51.660Z,28.70
2018-07-06T04:17:33.591Z,27.20
2018-07-06T04:20:15.521Z,27.87
2018-07-06T04:22:57.317Z,27.97
2018-07-06T04:25:39.114Z,25.90
2018-07-06T04:28:21.024Z,26.73
2018-07-06T04:31:03.038Z,25.57
2018-07-06T04:33:44.985Z,30.10
2018-07-06T04:36:27.082Z,27.47
2018-07-06T04:39:09.050Z,23.97
2018-07-06T04:41:50.794Z,25.87
2018-07-06T04:44:33.250Z,27.93
2018-07-06T04:47:15.173Z,26.00
2018-07-06T04:49:57.658Z,26.87
2018-07-06T04:52:40.075Z,25.07
2018-07-06T04:55:23.499Z,26.83
2018-07-06T04:58:05.417Z,24.33
2018-07-06T05:00:47.275Z,22.80
2018-07-06T05:03:29.316Z,22.63
2018-07-06T05:06:11.212Z,22.73
2018-07-06T05:08:54.120Z,22.80
2018-07-06T05:11:30.048Z,21.60
2018-07-06T05:14:12.150Z,22.10
2018-07-06T05:16:54.169Z,25.40
2018-07-06T05:19:37.514Z,19.40
2018-07-06T05:22:19.353Z,17.83
2018-07-06T05:25:01.282Z,20.70
2018-07-06T05:27:43.127Z,16.63
2018-07-06T05:30:24.857Z,16.90
2018-07-06T05:33:07.008Z,17.20
2018-07-06T05:35:48.922Z,16.10
2018-07-06T05:38:31.534Z,16.87
2018-07-06T05:41:13.462Z,16.10
2018-07-06T05:43:55.498Z,15.97
2018-07-06T05:46:37.397Z,14.80
2018-07-06T05:49:19.322Z,16.87
2018-07-06T05:52:01.168Z,15.17
2018-07-06T05:54:43.120Z,15.37
2018-07-06T05:57:25.090Z,14.00
2018-07-06T06:00:07.064Z,15.93
2018-07-06T06:02:48.989Z,14.47
2018-07-06T06:05:30.774Z,14.97
2018-07-06T06:08:00.659Z,15.70
2018-07-06T06:10:33.678Z,19.00
2018-07-06T06:13:06.693Z,15.03
2018-07-06T06:15:39.681Z,16.60
2018-07-06T06:18:12.706Z,17.47
2018-07-06T06:20:45.689Z,15.40
2018-07-06T06:23:18.704Z,20.80
2018-07-06T06:25:51.745Z,18.53
2018-07-06T06:28:24.857Z,21.13
2018-07-06T06:30:57.873Z,18.53
2018-07-06T06:33:30.990Z,19.60
2018-07-06T06:36:04.130Z,19.97
2018-07-06T06:38:37.122Z,20.73
2018-07-06T06:41:10.098Z,22.57
2018-07-06T06:43:43.055Z,21.03
2018-07-06T06:46:16.032Z,19.67
2018-07-06T06:48:49.166Z,19.80
2018-07-06T06:51:22.127Z,16.27
2018-07-06T06:53:55.042Z,15.93
2018-07-06T06:56:28.126Z,16.83
2018-07-06T06:59:01.268Z,14.50
2018-07-06T07:01:34.354Z,15.20
2018-07-06T07:04:07.375Z,13.13
2018-07-06T07:06:40.850Z,19.97
2018-07-06T07:09:13.890Z,16.53
2018-07-06T07:11:46.901Z,15.80
2018-07-06T07:14:19.991Z,15.63
2018-07-06T07:16:53.013Z,13.77
2018-07-06T07:19:25.905Z,15.13
2018-07-06T07:21:58.882Z,13.83
2018-07-06T07:24:31.896Z,16.53
2018-07-06T07:27:04.874Z,13.23
2018-07-06T07:29:37.845Z,13.00
2018-07-06T07:32:09.459Z,16.23
2018-07-06T07:34:42.456Z,14.70
2018-07-06T07:37:15.503Z,12.87
2018-07-06T07:39:48.558Z,12.43
2018-07-06T07:42:21.474Z,13.40
2018-07-06T07:44:54.547Z,16.10
2018-07-06T07:47:27.694Z,13.20
2018-07-06T07:50:00.669Z,13.40
2018-07-06T07:52:43.530Z,11.20
2018-07-06T07:55:16.556Z,9.80
2018-07-06T07:57:50.693Z,9.40
2018-07-06T08:00:23.626Z,10.83
2018-07-06T08:02:56.634Z,10.63
2018-07-06T08:05:29.694Z,12.30
2018-07-06T08:08:03.750Z,9.77
2018-07-06T08:10:36.769Z,12.90
2018-07-06T08:13:09.853Z,10.43
2018-07-06T08:15:42.915Z,11.13
2018-07-06T08:18:15.918Z,13.30
2018-07-06T08:20:49.850Z,13.33
2018-07-06T08:23:22.886Z,10.77
2018-07-06T08:25:55.962Z,11.20
2018-07-06T08:28:29.018Z,11.57
2018-07-06T08:31:02.003Z,11.37
2018-07-06T08:33:39.810Z,14.70
2018-07-06T08:38:28.003Z,14.27
2018-07-06T08:41:01.021Z,11.70
2018-07-06T08:43:34.077Z,12.63
2018-07-06T08:46:07.093Z,11.70
2018-07-06T08:48:39.987Z,12.60
2018-07-06T08:51:13.033Z,11.40
2018-07-06T08:53:45.938Z,18.17
2018-07-06T08:56:18.970Z,12.73
2018-07-06T08:58:51.998Z,10.70
2018-07-06T09:01:25.023Z,10.83
2018-07-06T09:03:58.005Z,14.00
2018-07-06T09:06:29.582Z,14.00
2018-07-06T09:09:02.602Z,11.73
2018-07-06T09:11:35.594Z,10.90
2018-07-06T09:14:08.600Z,9.97
2018-07-06T09:16:40.201Z,9.50
2018-07-06T09:19:13.290Z,9.80
2018-07-06T09:21:46.234Z,12.73
2018-07-06T09:24:19.358Z,9.17
2018-07-06T09:26:52.365Z,15.73
2018-07-06T09:29:25.452Z,12.50
2018-07-06T09:31:58.493Z,9.23
2018-07-06T09:34:31.447Z,10.53
2018-07-06T09:37:04.978Z,12.47
2018-07-06T09:39:38.034Z,9.50
2018-07-06T09:42:11.721Z,12.90
2018-07-06T09:44:44.650Z,12.53
2018-07-06T09:47:18.159Z,11.93
2018-07-06T09:49:51.238Z,10.23
2018-07-06T09:52:24.313Z,13.03
2018-07-06T09:54:57.297Z,13.00
2018-07-06T09:57:30.292Z,12.17
2018-07-06T10:00:03.253Z,10.40
2018-07-06T10:02:36.146Z,11.47
2018-07-06T10:05:09.165Z,11.77
2018-07-06T10:07:44.652Z,14.90
2018-07-06T10:10:17.613Z,10.97
2018-07-06T10:12:51.508Z,11.90
2018-07-06T10:15:24.595Z,11.67
2018-07-06T10:17:57.546Z,10.80
2018-07-06T10:20:30.643Z,10.97
2018-07-06T10:23:04.058Z,12.87
2018-07-06T10:25:37.152Z,10.90
2018-07-06T10:28:20.228Z,12.00
2018-07-06T10:33:14.809Z,10.60
2018-07-06T10:35:48.659Z,12.73
2018-07-06T10:38:21.634Z,18.50
2018-07-06T10:40:54.945Z,10.70
2018-07-06T10:43:28.936Z,13.23
2018-07-06T10:46:01.911Z,12.50
2018-07-06T10:48:34.936Z,13.07
2018-07-06T10:51:07.957Z,9.87
2018-07-06T10:53:41.037Z,12.13
2018-07-06T10:56:14.905Z,11.43
2018-07-06T10:58:48.029Z,11.17
2018-07-06T11:01:21.277Z,10.40
2018-07-06T11:03:54.454Z,11.27
2018-07-06T11:06:27.692Z,16.00
2018-07-06T11:09:00.778Z,11.00
2018-07-06T11:11:34.949Z,13.50
2018-07-06T11:14:08.624Z,9.83
2018-07-06T11:16:41.652Z,11.93
2018-07-06T11:19:14.789Z,13.40
2018-07-06T11:21:48.023Z,17.73
2018-07-06T11:24:21.319Z,11.13
2018-07-06T11:26:54.626Z,10.40
2018-07-06T11:29:27.822Z,13.07
2018-07-06T11:32:01.441Z,13.90
2018-07-06T11:34:34.682Z,11.70
2018-07-06T11:37:07.741Z,12.57
2018-07-06T11:39:41.278Z,13.37
2018-07-06T11:42:14.442Z,13.80
2018-07-06T11:44:47.584Z,15.27
2018-07-06T11:47:20.658Z,12.33
2018-07-06T11:49:53.665Z,12.40
2018-07-06T11:52:27.667Z,16.73
2018-07-06T11:55:00.809Z,13.27
2018-07-06T11:57:34.851Z,13.50
2018-07-06T12:00:07.933Z,12.63
2018-07-06T12:02:41.017Z,16.00
2018-07-06T12:05:14.000Z,11.50
2018-07-06T12:07:47.015Z,13.40
2018-07-06T12:10:19.984Z,12.33
2018-07-06T12:12:52.954Z,12.60
2018-07-06T12:15:26.035Z,13.70
2018-07-06T12:17:59.090Z,11.87
2018-07-06T12:20:32.157Z,17.20
2018-07-06T12:23:06.099Z,11.13
2018-07-06T12:25:39.078Z,12.57
2018-07-06T12:53:54.981Z,11.07
2018-07-06T12:56:28.352Z,16.93
2018-07-06T12:59:01.317Z,12.93
2018-07-06T13:01:34.346Z,13.83
2018-07-06T13:04:08.068Z,13.07
2018-07-06T13:06:41.778Z,12.43
2018-07-06T13:09:15.592Z,17.63
2018-07-06T13:11:48.590Z,13.63
2018-07-06T13:14:21.591Z,17.83
2018-07-06T13:16:54.563Z,13.07
2018-07-06T13:19:27.507Z,12.30
2018-07-06T13:22:00.576Z,19.40
2018-07-06T13:24:33.646Z,16.40
2018-07-06T13:27:06.605Z,19.87
2018-07-06T13:29:39.701Z,13.70
2018-07-06T13:32:12.802Z,17.27
2018-07-06T13:34:45.805Z,13.90
2018-07-06T13:37:18.914Z,14.90
2018-07-06T13:39:51.970Z,19.37
2018-07-06T13:42:24.901Z,18.40
2018-07-06T13:44:58.837Z,19.73
2018-07-06T13:47:31.743Z,18.07
2018-07-06T13:50:04.830Z,18.23
2018-07-06T13:52:37.814Z,17.90
2018-07-06T13:55:10.934Z,20.53
2018-07-06T13:57:43.786Z,14.60
2018-07-06T14:00:17.427Z,14.67
2018-07-06T14:02:50.440Z,12.53
2018-07-06T14:05:23.438Z,16.20
2018-07-06T14:07:56.685Z,12.97
2018-07-06T14:10:29.904Z,15.27
2018-07-06T14:13:03.359Z,23.60
2018-07-06T14:15:36.350Z,14.80
2018-07-06T14:18:10.018Z,17.67
2018-07-06T14:20:42.986Z,23.43
2018-07-06T14:23:16.246Z,12.17
2018-07-06T14:25:49.338Z,13.23
2018-07-06T14:28:22.623Z,13.63
2018-07-06T14:30:56.429Z,12.60
2018-07-06T14:33:29.492Z,15.20
2018-07-06T14:36:02.743Z,21.60
2018-07-06T14:38:35.842Z,15.93
2018-07-06T14:41:09.215Z,16.43
2018-07-06T14:43:42.270Z,20.87
2018-07-06T14:46:15.696Z,17.07
2018-07-06T14:48:48.695Z,13.13
2018-07-06T14:51:21.786Z,18.63
2018-07-06T14:53:54.764Z,16.10
2018-07-06T14:56:27.760Z,15.23
2018-07-06T14:59:00.832Z,19.90
2018-07-06T15:01:33.740Z,15.67
2018-07-06T15:04:06.658Z,13.53
2018-07-06T15:06:39.992Z,14.00
2018-07-06T15:09:13.036Z,14.83
2018-07-06T15:11:46.443Z,13.93
2018-07-06T15:14:19.588Z,17.23
2018-07-06T15:16:52.977Z,16.03
2018-07-06T15:19:26.007Z,15.63
2018-07-06T15:21:59.184Z,18.07
2018-07-06T15:24:32.333Z,21.00
2018-07-06T15:27:05.450Z,18.40
2018-07-06T15:29:38.734Z,15.60
2018-07-06T15:32:12.084Z,14.37
2018-07-06T15:34:49.680Z,15.63
2018-07-06T15:37:23.736Z,15.60
2018-07-06T15:39:57.862Z,19.80
2018-07-06T15:42:32.873Z,13.83
2018-07-06T15:45:06.044Z,14.63
2018-07-06T15:47:39.395Z,12.47
2018-07-06T15:50:12.356Z,13.63
2018-07-06T15:52:45.575Z,14.80
2018-07-06T15:55:18.640Z,15.50
2018-07-06T15:57:51.868Z,14.40
2018-07-06T16:00:25.839Z,18.37
2018-07-06T16:02:59.028Z,15.90
2018-07-06T16:05:32.345Z,15.97
2018-07-06T16:08:06.522Z,19.47
2018-07-06T16:10:39.684Z,15.30
2018-07-06T16:13:12.674Z,20.60
2018-07-06T16:15:45.669Z,14.27
2018-07-06T16:18:18.621Z,12.30
2018-07-06T16:20:51.792Z,12.93
2018-07-06T16:23:25.003Z,16.10
2018-07-06T16:25:58.123Z,14.93
2018-07-06T16:28:31.237Z,10.87
2018-07-06T16:31:04.477Z,10.10
2018-07-06T16:33:37.472Z,10.30
2018-07-06T16:36:10.641Z,7.63
2018-07-06T16:38:44.575Z,7.77
2018-07-06T16:41:17.746Z,9.28
2018-07-06T16:43:51.618Z,7.80
2018-07-06T16:46:24.614Z,7.77
2018-07-06T16:48:57.545Z,6.93
2018-07-06T16:51:30.908Z,7.30
2018-07-06T16:54:04.064Z,6.70
2018-07-06T16:56:38.078Z,6.63
2018-07-06T16:59:11.198Z,7.43
2018-07-06T17:01:44.154Z,9.20
2018-07-06T17:04:17.915Z,6.87
2018-07-06T17:06:50.949Z,8.53
2018-07-06T17:09:23.930Z,7.40
2018-07-06T17:11:56.858Z,7.60
2018-07-06T17:14:29.833Z,8.27
2018-07-06T17:17:02.924Z,5.83
2018-07-06T17:19:35.886Z,6.80
2018-07-06T17:22:09.226Z,5.77
2018-07-06T17:24:42.965Z,6.67
2018-07-06T17:27:18.330Z,7.20
2018-07-06T17:29:53.106Z,6.30
2018-07-06T17:32:26.222Z,6.20
2018-07-06T17:35:00.055Z,6.23
2018-07-06T17:37:32.933Z,5.80
2018-07-06T17:40:06.738Z,6.17
2018-07-06T17:42:39.770Z,5.80
2018-07-06T17:45:12.805Z,6.63
2018-07-06T17:47:45.841Z,6.03
2018-07-06T18:12:50.032Z,8.13
2018-07-06T18:15:24.246Z,7.10
2018-07-06T18:17:57.791Z,5.73
2018-07-06T18:20:31.309Z,6.57
2018-07-06T18:23:04.994Z,5.90
2018-07-06T18:25:38.402Z,5.83
2018-07-06T18:28:11.669Z,8.30
2018-07-06T18:30:45.793Z,6.97
2018-07-06T18:33:19.226Z,6.20
2018-07-06T18:35:53.430Z,6.43
2018-07-06T18:38:26.574Z,6.10
2018-07-06T18:40:59.638Z,5.50
2018-07-06T18:43:32.602Z,6.80
2018-07-06T18:46:05.591Z,6.70
2018-07-06T18:48:38.566Z,6.63
2018-07-06T18:51:11.641Z,6.90
2018-07-06T18:53:45.492Z,6.40
2018-07-06T18:56:18.460Z,6.00
2018-07-06T18:58:51.502Z,6.13
2018-07-06T19:01:24.497Z,7.70
2018-07-06T19:03:57.575Z,6.73
2018-07-06T19:06:30.573Z,8.20
2018-07-06T19:09:03.578Z,6.63
2018-07-06T19:11:36.734Z,7.10
2018-07-06T19:14:09.954Z,7.30
2018-07-06T19:16:42.983Z,7.17
2018-07-06T19:19:15.962Z,6.50
2018-07-06T19:21:48.917Z,7.80
2018-07-06T19:24:21.999Z,6.67
2018-07-06T19:26:55.059Z,7.13
2018-07-06T19:29:28.103Z,6.60
2018-07-06T19:32:01.039Z,7.80
2018-07-06T19:34:34.029Z,7.50
2018-07-06T19:37:07.065Z,7.30
2018-07-06T19:39:39.954Z,7.33
2018-07-06T19:42:12.930Z,8.07
2018-07-06T19:44:45.855Z,7.47
2018-07-06T19:47:18.927Z,8.00
2018-07-06T19:49:51.923Z,7.90
2018-07-06T19:52:25.339Z,8.00
2018-07-06T19:54:58.464Z,8.00
2018-07-06T19:57:31.401Z,7.30
2018-07-06T20:00:04.429Z,6.60
2018-07-06T20:02:37.402Z,8.40
2018-07-06T20:05:10.287Z,8.00
2018-07-06T20:07:43.342Z,7.83
2018-07-06T20:10:16.403Z,8.10
2018-07-06T20:12:49.398Z,8.03
2018-07-06T20:15:22.365Z,8.73
2018-07-06T20:17:55.366Z,8.43
2018-07-06T20:20:28.338Z,8.83
2018-07-06T20:23:01.251Z,8.27
2018-07-06T20:25:34.219Z,9.20
2018-07-06T20:28:07.146Z,9.20
2018-07-06T20:30:40.112Z,9.20
2018-07-06T20:33:13.153Z,8.17
2018-07-06T20:35:44.858Z,7.80
2018-07-06T20:38:17.914Z,8.33
2018-07-06T20:40:50.868Z,8.67
2018-07-06T20:43:24.387Z,8.70
2018-07-06T20:45:57.438Z,11.40
2018-07-06T20:48:30.465Z,8.10
2018-07-06T20:51:03.596Z,7.93
2018-07-06T20:53:36.748Z,8.23
2018-07-06T20:56:09.651Z,8.20
2018-07-06T20:58:42.718Z,8.80
2018-07-06T21:01:15.738Z,9.10
2018-07-06T21:03:48.685Z,8.80
2018-07-06T21:06:23.485Z,8.47
2018-07-06T21:08:56.429Z,9.80
2018-07-06T21:11:29.353Z,9.40
2018-07-06T21:14:02.358Z,8.80
2018-07-06T21:16:35.451Z,8.17
2018-07-06T21:19:08.553Z,9.87
2018-07-06T21:21:41.610Z,8.00
2018-07-06T21:24:14.818Z,9.50
2018-07-06T21:26:48.561Z,8.77
2018-07-06T21:29:21.575Z,8.97
2018-07-06T21:31:54.671Z,8.20
2018-07-06T21:34:27.698Z,9.37
2018-07-06T21:37:00.753Z,9.23
2018-07-06T21:39:33.814Z,9.60
2018-07-06T21:42:06.804Z,9.40
2018-07-06T21:44:40.393Z,9.83
2018-07-06T21:47:13.390Z,9.60
2018-07-06T21:49:46.385Z,9.40
2018-07-06T21:52:19.390Z,9.23
2018-07-06T21:54:52.487Z,9.70
2018-07-06T21:57:25.465Z,10.40
2018-07-06T21:59:58.410Z,9.70
2018-07-06T22:02:31.430Z,8.90
2018-07-06T22:05:04.706Z,9.43
2018-07-06T22:07:38.484Z,8.83
2018-07-06T22:10:11.483Z,8.50
2018-07-06T22:12:44.531Z,12.47
2018-07-06T22:15:17.549Z,9.20
2018-07-06T22:17:50.964Z,9.13
2018-07-06T22:20:23.983Z,11.73
2018-07-06T22:22:56.982Z,9.63
2018-07-06T22:25:30.176Z,9.17
2018-07-06T22:28:03.209Z,9.70
2018-07-06T22:30:36.618Z,9.67
2018-07-06T22:33:09.631Z,10.70
2018-07-06T22:35:44.435Z,8.97
2018-07-06T22:38:17.419Z,10.77
2018-07-06T22:40:50.343Z,10.83
2018-07-06T22:43:23.361Z,11.47
2018-07-06T22:45:56.389Z,10.40
2018-07-06T22:48:30.415Z,10.37
2018-07-06T22:51:03.387Z,9.80
2018-07-06T22:53:36.430Z,11.07
2018-07-06T22:56:09.511Z,10.23
2018-07-06T22:58:42.543Z,10.73
2018-07-06T23:01:15.570Z,10.27
2018-07-06T23:03:48.554Z,9.93
2018-07-06T23:06:21.713Z,10.13
2018-07-06T23:08:54.657Z,10.37
2018-07-06T23:11:27.675Z,11.63
2018-07-06T23:14:00.644Z,11.87
2018-07-06T23:16:33.679Z,14.33
2018-07-06T23:19:07.167Z,11.60
2018-07-06T23:21:40.158Z,12.47
2018-07-06T23:24:13.167Z,15.73
2018-07-06T23:26:46.274Z,13.03
2018-07-06T23:29:19.350Z,11.67
2018-07-06T23:31:52.434Z,12.20
2018-07-06T23:34:26.405Z,12.43
2018-07-06T23:37:00.307Z,12.60
2018-07-06T23:39:33.229Z,11.93
2018-07-06T23:42:06.126Z,14.03
2018-07-06T23:44:39.137Z,13.57
2018-07-06T23:47:12.042Z,11.60
2018-07-06T23:49:45.162Z,12.20
2018-07-06T23:52:19.084Z,12.23
2018-07-06T23:54:52.054Z,12.80
2018-07-06T23:57:25.551Z,13.80
2018-07-06T23:59:58.596Z,12.93
